Gambell Airport
PAGM : rendu visible

Aérodrome :











RETROUVEZ-NOUS SUR...

 
LOGIN :

S'inscrire | Disclaimer

   EN    FR    IT 

 









Légende :    VFR   VFR Marginal   IFR   IFR Intensif   IFR Très Intensif
Visi : 
Plafond : 
>= 8 km
>= 3000ft
5 à 8 km
1000 à 3000 ft
1500m à 5 km
500 à 1000 ft
800 à 1500m
200 à 500 ft
< 800m
< 200 ft
Symboles :   Orages  Brouillard  Fortes neiges  Fortes précipitations  Vent > 20 kt






- Altitude de l'aérodrome : 27 ft
- Code IATA : GAM


PAGM - Gambell

DERNIER METAR :
  • 061056Z AUTO 04007KT 1/4SM FG OVC003 00/00 A3008 RMK AO2 SLP191 T00000000 FZRANO

METARs EXPIRÉS :
  • 061033Z AUTO 02007KT 1/4SM FZFG OVC003 M01/M01 A3008 RMK AO2 FZRANO
  • 060956Z AUTO 03007KT 1/4SM FZFG OVC001 M01/M01 A3007 RMK AO2 UPB33E49 SLP189 P0000 T10061006 FZRANO
  • 060856Z AUTO 03008KT 1/4SM FG OVC001 00/00 A3007 RMK AO2 SLP187 60000 T00000000 400220000 51011 FZRANO
  • 060823Z AUTO 03008KT 3/4SM BR OVC003 00/00 A3006 RMK AO2 FZRANO

TAF N/A
FIR PAZA / Amérique du Nord



MET'MAP, la Météo Aéronautique d'un coup d'oeil ! - Copyright ORBIFLY Décembre 2007 - Disclaimer

ORBIFLY MET'MAP TEAM :

Programmation & Développement : Alexandra Zaïnal
Sur une idée originale de : Baudouin d'Aumeries
Assistance à la programmation : Marc-Olivier Méhu
Soutien technique & logistique : Manuel Goepfert

Contact : metmap@orbifly.com




SOURCES & CREDITS :

   NOAA       Earth
Advisory